メインページ
METAR-TAF:

METAR-TAF

空港 :

ベナジル・ブット国際空港

イスラマバード, パキスタン

緯度: 33-37N, 経度: 073-06E, 海抜: 507m

現時点の気象観測

当レポートは26分前の02:59(UTC)に作成
北東の風 4kt
気温 29°C
湿度 27%
気圧 1011 hPa
視程10km以上
1,500メートル以下は雲なし、積乱雲なし

METAR: OPRN 210259Z 05004KT CAVOK 29/08 Q1011 NOSIG RMK A2985

時間: 08:25 (03:25 UTC)

予報

当レポートは5時間55分前の21:30(UTC)に作成
予報は21日の 00時(UTC)から 22日の 06時(UTC)まで有効
南東の風 6kt
視程: 5000m
高度4000ftの雲はほとんどない
高度10000ftの雲は散在している
煙霧
21日の 04時(UTC)から 21日の 06時(UTC)まで徐々に
西/北西の風 10kt
視程10km以上
高度4000ftの雲はほとんどない
21日の 16時(UTC)から 21日の 18時(UTC)まで徐々に
北/北西の風 6kt
視程: 7000m
22日の 00時(UTC)から 22日の 06時(UTC)まで一時的に
南東の風 10kt
視程: 5000m
高度4000ftの雲はほとんどない
高度10000ftの雲は散在している
高度18000ftの千切れ雲あり
煙霧

TAF: OPRN 202130Z 2100/2206 13006KT 5000 HZ FEW040 SCT100 BECMG 2104/2106 30010KT 9999 FEW040 BECMG 2116/2118 33006KT 7000 NSC TEMPO 2200/2206 13010KT 5000 HZ FEW040 SCT100 BKN180

4,000以上の空港の気象観測と天気予報(METAR報とTAF報)

利用可能な観測所は地図上に黄色い丸と赤い丸で示す。

丸の上にカーソルを重ねると観測所名を参照できる。

次にクリックすると気象観測と天気予報を参照できる。

マップの切り替え:黒色「×」印の緑ボタンをクリックして拡大、「-」印の緑ボタンをクリックして縮小、緑色の三角印をクリックして隣りの地図に切り替え


METAR-TAF: